sensor_id;sensor_type;location;lat;lon;timestamp;pressure;altitude;pressure_sealevel;temperature;humidity
7309;BME280;3695;53.330;9.876;2023-07-31T00:00:21;101461.53;;;10.70;nan
7309;BME280;3695;53.330;9.876;2023-07-31T00:02:48;101289.88;;;10.63;nan
7309;BME280;3695;53.330;9.876;2023-07-31T00:05:15;101033.00;;;10.65;nan
7309;BME280;3695;53.330;9.876;2023-07-31T00:07:42;101392.66;;;10.58;nan
7309;BME280;3695;53.330;9.876;2023-07-31T00:10:09;101671.75;;;10.45;nan
7309;BME280;3695;53.330;9.876;2023-07-31T00:12:38;101806.50;;;10.51;nan
7309;BME280;3695;53.330;9.876;2023-07-31T00:15:05;101677.03;;;10.53;nan
7309;BME280;3695;53.330;9.876;2023-07-31T00:17:32;101297.78;;;10.45;nan
7309;BME280;3695;53.330;9.876;2023-07-31T00:19:58;101012.41;;;10.51;nan
7309;BME280;3695;53.330;9.876;2023-07-31T00:22:25;100829.75;;;10.59;nan
7309;BME280;3695;53.330;9.876;2023-07-31T00:24:51;100818.25;;;10.63;nan
7309;BME280;3695;53.330;9.876;2023-07-31T00:27:17;100972.56;;;10.58;nan
7309;BME280;3695;53.330;9.876;2023-07-31T00:29:45;100798.41;;;10.69;nan
7309;BME280;3695;53.330;9.876;2023-07-31T00:32:12;100771.19;;;10.58;nan
7309;BME280;3695;53.330;9.876;2023-07-31T00:34:38;101357.66;;;10.63;nan
7309;BME280;3695;53.330;9.876;2023-07-31T00:37:05;101709.97;;;10.50;nan
7309;BME280;3695;53.330;9.876;2023-07-31T00:39:33;101412.13;;;10.82;nan
7309;BME280;3695;53.330;9.876;2023-07-31T00:42:00;101157.88;;;10.90;nan
7309;BME280;3695;53.330;9.876;2023-07-31T00:44:26;100712.44;;;10.77;nan
7309;BME280;3695;53.330;9.876;2023-07-31T00:46:55;100583.47;;;10.87;nan
7309;BME280;3695;53.330;9.876;2023-07-31T00:49:23;100569.41;;;10.97;nan
7309;BME280;3695;53.330;9.876;2023-07-31T00:51:50;100959.31;;;10.88;nan
7309;BME280;3695;53.330;9.876;2023-07-31T00:54:16;101429.91;;;10.91;nan
7309;BME280;3695;53.330;9.876;2023-07-31T00:56:44;101425.53;;;10.90;nan
7309;BME280;3695;53.330;9.876;2023-07-31T00:59:11;101731.69;;;10.85;nan
7309;BME280;3695;53.330;9.876;2023-07-31T01:01:38;101511.06;;;10.92;nan
7309;BME280;3695;53.330;9.876;2023-07-31T01:04:06;101415.88;;;10.81;nan
7309;BME280;3695;53.330;9.876;2023-07-31T01:06:36;101589.94;;;10.97;nan
7309;BME280;3695;53.330;9.876;2023-07-31T01:09:11;101742.44;;;10.93;nan
7309;BME280;3695;53.330;9.876;2023-07-31T01:11:50;101788.00;;;10.83;nan
7309;BME280;3695;53.330;9.876;2023-07-31T01:14:18;101871.88;;;10.84;nan
7309;BME280;3695;53.330;9.876;2023-07-31T01:16:44;101888.63;;;10.88;nan
7309;BME280;3695;53.330;9.876;2023-07-31T01:19:14;101888.88;;;10.71;nan
7309;BME280;3695;53.330;9.876;2023-07-31T01:21:52;101645.00;;;10.91;nan
7309;BME280;3695;53.330;9.876;2023-07-31T01:24:23;101613.03;;;10.87;nan
7309;BME280;3695;53.330;9.876;2023-07-31T01:27:00;101917.06;;;10.92;nan
7309;BME280;3695;53.330;9.876;2023-07-31T01:29:36;102019.81;;;10.87;nan
7309;BME280;3695;53.330;9.876;2023-07-31T01:32:06;102004.97;;;10.97;nan
7309;BME280;3695;53.330;9.876;2023-07-31T01:34:34;101891.53;;;10.86;nan
7309;BME280;3695;53.330;9.876;2023-07-31T01:37:01;102006.56;;;10.92;nan
7309;BME280;3695;53.330;9.876;2023-07-31T01:39:28;102029.00;;;11.00;nan
7309;BME280;3695;53.330;9.876;2023-07-31T01:41:56;101910.31;;;10.88;nan
7309;BME280;3695;53.330;9.876;2023-07-31T01:44:23;102072.66;;;11.06;nan
7309;BME280;3695;53.330;9.876;2023-07-31T01:46:49;102675.56;;;11.01;nan
7309;BME280;3695;53.330;9.876;2023-07-31T01:49:16;103064.97;;;11.05;nan
7309;BME280;3695;53.330;9.876;2023-07-31T01:51:42;102985.41;;;11.04;nan
7309;BME280;3695;53.330;9.876;2023-07-31T01:54:09;102637.88;;;11.06;nan
7309;BME280;3695;53.330;9.876;2023-07-31T01:56:36;103030.00;;;11.02;nan
7309;BME280;3695;53.330;9.876;2023-07-31T01:59:04;103511.38;;;11.01;nan
7309;BME280;3695;53.330;9.876;2023-07-31T02:01:30;103804.84;;;10.88;nan
7309;BME280;3695;53.330;9.876;2023-07-31T02:03:56;103800.91;;;11.10;nan
7309;BME280;3695;53.330;9.876;2023-07-31T02:06:23;103809.94;;;11.01;nan
7309;BME280;3695;53.330;9.876;2023-07-31T02:08:49;103803.63;;;11.10;nan
7309;BME280;3695;53.330;9.876;2023-07-31T02:11:16;103793.06;;;11.07;nan
7309;BME280;3695;53.330;9.876;2023-07-31T02:13:42;103863.78;;;11.06;nan
7309;BME280;3695;53.330;9.876;2023-07-31T02:16:10;103851.59;;;11.19;nan
7309;BME280;3695;53.330;9.876;2023-07-31T02:18:37;103843.00;;;11.24;nan
7309;BME280;3695;53.330;9.876;2023-07-31T02:21:03;103831.63;;;11.11;nan
7309;BME280;3695;53.330;9.876;2023-07-31T02:23:30;103810.41;;;11.24;nan
7309;BME280;3695;53.330;9.876;2023-07-31T02:25:56;103799.81;;;11.30;nan
7309;BME280;3695;53.330;9.876;2023-07-31T02:28:22;103768.44;;;11.18;nan
7309;BME280;3695;53.330;9.876;2023-07-31T02:30:50;103745.41;;;11.22;nan
7309;BME280;3695;53.330;9.876;2023-07-31T02:33:18;103739.91;;;11.04;nan
7309;BME280;3695;53.330;9.876;2023-07-31T02:35:44;103764.97;;;11.26;nan
7309;BME280;3695;53.330;9.876;2023-07-31T02:38:10;103754.97;;;11.26;nan
7309;BME280;3695;53.330;9.876;2023-07-31T02:40:37;103791.97;;;11.27;nan
7309;BME280;3695;53.330;9.876;2023-07-31T02:43:03;103803.84;;;11.26;nan
7309;BME280;3695;53.330;9.876;2023-07-31T02:45:30;103822.13;;;11.24;nan
7309;BME280;3695;53.330;9.876;2023-07-31T02:47:56;103819.56;;;11.23;nan
7309;BME280;3695;53.330;9.876;2023-07-31T02:50:24;103829.28;;;11.25;nan
7309;BME280;3695;53.330;9.876;2023-07-31T02:52:50;103856.69;;;11.32;nan
7309;BME280;3695;53.330;9.876;2023-07-31T02:55:17;103882.72;;;11.25;nan
7309;BME280;3695;53.330;9.876;2023-07-31T02:57:43;103868.00;;;11.27;nan
7309;BME280;3695;53.330;9.876;2023-07-31T03:00:10;103880.59;;;11.19;nan
7309;BME280;3695;53.330;9.876;2023-07-31T03:02:36;103892.44;;;11.27;nan
7309;BME280;3695;53.330;9.876;2023-07-31T03:05:03;103912.63;;;11.15;nan
7309;BME280;3695;53.330;9.876;2023-07-31T03:07:31;103921.59;;;11.25;nan
7309;BME280;3695;53.330;9.876;2023-07-31T03:09:57;103953.75;;;11.30;nan
7309;BME280;3695;53.330;9.876;2023-07-31T03:12:24;103964.16;;;11.34;nan
7309;BME280;3695;53.330;9.876;2023-07-31T03:14:50;103948.47;;;11.28;nan
7309;BME280;3695;53.330;9.876;2023-07-31T03:17:17;103947.31;;;11.31;nan
7309;BME280;3695;53.330;9.876;2023-07-31T03:19:43;103939.31;;;11.29;nan
7309;BME280;3695;53.330;9.876;2023-07-31T03:22:09;103912.91;;;11.12;nan
7309;BME280;3695;53.330;9.876;2023-07-31T03:24:37;103872.16;;;11.22;nan
7309;BME280;3695;53.330;9.876;2023-07-31T03:27:04;103849.13;;;11.26;nan
7309;BME280;3695;53.330;9.876;2023-07-31T03:29:31;103866.41;;;11.34;nan
7309;BME280;3695;53.330;9.876;2023-07-31T03:31:57;103908.13;;;11.33;nan
7309;BME280;3695;53.330;9.876;2023-07-31T03:34:24;103896.16;;;11.26;nan
7309;BME280;3695;53.330;9.876;2023-07-31T03:36:50;103881.16;;;11.22;nan
7309;BME280;3695;53.330;9.876;2023-07-31T03:39:18;103921.31;;;11.28;nan
7309;BME280;3695;53.330;9.876;2023-07-31T03:41:46;103956.16;;;11.33;nan
7309;BME280;3695;53.330;9.876;2023-07-31T03:44:12;103986.19;;;11.31;nan
7309;BME280;3695;53.330;9.876;2023-07-31T03:46:38;104014.34;;;11.30;nan
7309;BME280;3695;53.330;9.876;2023-07-31T03:49:05;104003.06;;;11.25;nan
7309;BME280;3695;53.330;9.876;2023-07-31T03:51:31;103996.78;;;11.06;nan
7309;BME280;3695;53.330;9.876;2023-07-31T03:53:58;103956.47;;;11.20;nan
7309;BME280;3695;53.330;9.876;2023-07-31T03:56:25;103930.16;;;11.30;nan
7309;BME280;3695;53.330;9.876;2023-07-31T03:58:53;103949.03;;;11.22;nan
7309;BME280;3695;53.330;9.876;2023-07-31T04:01:19;103989.19;;;11.28;nan
7309;BME280;3695;53.330;9.876;2023-07-31T04:03:46;103988.78;;;11.23;nan
7309;BME280;3695;53.330;9.876;2023-07-31T04:06:12;103994.50;;;11.20;nan
7309;BME280;3695;53.330;9.876;2023-07-31T04:08:39;103986.06;;;11.04;nan
7309;BME280;3695;53.330;9.876;2023-07-31T04:11:05;104021.06;;;11.26;nan
7309;BME280;3695;53.330;9.876;2023-07-31T04:13:31;104080.38;;;11.21;nan
7309;BME280;3695;53.330;9.876;2023-07-31T04:16:00;104121.41;;;11.18;nan
7309;BME280;3695;53.330;9.876;2023-07-31T04:18:26;104089.94;;;11.06;nan
7309;BME280;3695;53.330;9.876;2023-07-31T04:20:53;104068.38;;;11.14;nan
7309;BME280;3695;53.330;9.876;2023-07-31T04:23:19;104083.81;;;11.14;nan
7309;BME280;3695;53.330;9.876;2023-07-31T04:25:46;104136.56;;;11.30;nan
7309;BME280;3695;53.330;9.876;2023-07-31T04:28:12;104177.69;;;11.16;nan
7309;BME280;3695;53.330;9.876;2023-07-31T04:30:39;104197.69;;;11.15;nan
7309;BME280;3695;53.330;9.876;2023-07-31T04:33:06;104196.88;;;11.24;nan
7309;BME280;3695;53.330;9.876;2023-07-31T04:35:33;104241.28;;;11.14;nan
7309;BME280;3695;53.330;9.876;2023-07-31T04:37:59;104221.41;;;11.13;nan
7309;BME280;3695;53.330;9.876;2023-07-31T04:40:26;104194.00;;;11.16;nan
7309;BME280;3695;53.330;9.876;2023-07-31T04:42:52;104217.88;;;11.32;nan
7309;BME280;3695;53.330;9.876;2023-07-31T04:45:19;104188.28;;;11.19;nan
7309;BME280;3695;53.330;9.876;2023-07-31T04:47:45;104183.13;;;11.16;nan
7309;BME280;3695;53.330;9.876;2023-07-31T04:50:13;104207.56;;;11.16;nan
7309;BME280;3695;53.330;9.876;2023-07-31T04:52:39;104269.78;;;11.29;nan
7309;BME280;3695;53.330;9.876;2023-07-31T04:55:06;104257.53;;;11.04;nan
7309;BME280;3695;53.330;9.876;2023-07-31T04:57:32;104232.00;;;11.16;nan
7309;BME280;3695;53.330;9.876;2023-07-31T04:59:59;104230.16;;;11.26;nan
7309;BME280;3695;53.330;9.876;2023-07-31T05:02:25;104199.41;;;11.16;nan
7309;BME280;3695;53.330;9.876;2023-07-31T05:04:52;104240.66;;;11.41;nan
7309;BME280;3695;53.330;9.876;2023-07-31T05:07:20;104234.03;;;11.33;nan
7309;BME280;3695;53.330;9.876;2023-07-31T05:09:46;104226.91;;;11.32;nan
7309;BME280;3695;53.330;9.876;2023-07-31T05:12:12;104267.13;;;11.39;nan
7309;BME280;3695;53.330;9.876;2023-07-31T05:14:39;104283.69;;;11.35;nan
7309;BME280;3695;53.330;9.876;2023-07-31T05:17:05;104226.84;;;11.13;nan
7309;BME280;3695;53.330;9.876;2023-07-31T05:19:32;104250.09;;;11.37;nan
7309;BME280;3695;53.330;9.876;2023-07-31T05:21:58;104283.28;;;11.40;nan
7309;BME280;3695;53.330;9.876;2023-07-31T05:24:26;104326.75;;;11.50;nan
7309;BME280;3695;53.330;9.876;2023-07-31T05:26:52;104308.94;;;11.26;nan
7309;BME280;3695;53.330;9.876;2023-07-31T05:29:19;104289.56;;;11.41;nan
7309;BME280;3695;53.330;9.876;2023-07-31T05:31:45;104227.81;;;11.43;nan
7309;BME280;3695;53.330;9.876;2023-07-31T05:34:11;104224.47;;;11.29;nan
7309;BME280;3695;53.330;9.876;2023-07-31T05:36:38;104298.19;;;11.65;nan
7309;BME280;3695;53.330;9.876;2023-07-31T05:39:04;104291.00;;;11.45;nan
7309;BME280;3695;53.330;9.876;2023-07-31T05:41:32;104322.75;;;11.54;nan
7309;BME280;3695;53.330;9.876;2023-07-31T05:43:59;104337.13;;;11.35;nan
7309;BME280;3695;53.330;9.876;2023-07-31T05:46:26;104421.91;;;11.69;nan
7309;BME280;3695;53.330;9.876;2023-07-31T05:48:52;104404.66;;;11.40;nan
7309;BME280;3695;53.330;9.876;2023-07-31T05:51:19;104448.06;;;11.60;nan
7309;BME280;3695;53.330;9.876;2023-07-31T05:53:45;104508.88;;;11.69;nan
7309;BME280;3695;53.330;9.876;2023-07-31T05:56:11;104569.81;;;11.66;nan
7309;BME280;3695;53.330;9.876;2023-07-31T05:58:39;104617.56;;;11.80;nan
7309;BME280;3695;53.330;9.876;2023-07-31T06:01:06;104633.97;;;11.58;nan
7309;BME280;3695;53.330;9.876;2023-07-31T06:03:32;104697.75;;;11.86;nan
7309;BME280;3695;53.330;9.876;2023-07-31T06:05:58;104696.69;;;11.66;nan
7309;BME280;3695;53.330;9.876;2023-07-31T06:08:25;104753.47;;;11.80;nan
7309;BME280;3695;53.330;9.876;2023-07-31T06:10:51;104786.84;;;11.82;nan
7309;BME280;3695;53.330;9.876;2023-07-31T06:13:18;104768.34;;;11.65;nan
7309;BME280;3695;53.330;9.876;2023-07-31T06:15:45;104837.28;;;11.86;nan
7309;BME280;3695;53.330;9.876;2023-07-31T06:18:12;104862.22;;;11.80;nan
7309;BME280;3695;53.330;9.876;2023-07-31T06:20:38;104924.38;;;11.96;nan
7309;BME280;3695;53.330;9.876;2023-07-31T06:23:05;104965.88;;;12.09;nan
7309;BME280;3695;53.330;9.876;2023-07-31T06:25:32;104982.47;;;11.95;nan
7309;BME280;3695;53.330;9.876;2023-07-31T06:27:59;105046.88;;;12.06;nan
7309;BME280;3695;53.330;9.876;2023-07-31T06:30:25;105075.16;;;12.14;nan
7309;BME280;3695;53.330;9.876;2023-07-31T06:32:53;105124.00;;;12.05;nan
7309;BME280;3695;53.330;9.876;2023-07-31T06:35:20;105153.94;;;12.05;nan
7309;BME280;3695;53.330;9.876;2023-07-31T06:37:46;105158.88;;;12.11;nan
7309;BME280;3695;53.330;9.876;2023-07-31T06:40:13;105092.38;;;12.04;nan
7309;BME280;3695;53.330;9.876;2023-07-31T06:42:39;105099.53;;;12.05;nan
7309;BME280;3695;53.330;9.876;2023-07-31T06:45:07;105173.50;;;12.32;nan
7309;BME280;3695;53.330;9.876;2023-07-31T06:47:33;105210.09;;;12.28;nan
7309;BME280;3695;53.330;9.876;2023-07-31T06:50:01;105233.75;;;12.39;nan
7309;BME280;3695;53.330;9.876;2023-07-31T06:52:27;105230.38;;;12.24;nan
7309;BME280;3695;53.330;9.876;2023-07-31T06:55:01;105249.53;;;12.22;nan
7309;BME280;3695;53.330;9.876;2023-07-31T06:57:28;105242.72;;;12.17;nan
7309;BME280;3695;53.330;9.876;2023-07-31T06:59:54;105292.16;;;12.11;nan
7309;BME280;3695;53.330;9.876;2023-07-31T07:02:21;105296.72;;;12.34;nan
7309;BME280;3695;53.330;9.876;2023-07-31T07:04:48;105234.56;;;12.17;nan
7309;BME280;3695;53.330;9.876;2023-07-31T07:07:17;105244.94;;;12.12;nan
7309;BME280;3695;53.330;9.876;2023-07-31T07:09:43;105187.44;;;12.05;nan
7309;BME280;3695;53.330;9.876;2023-07-31T07:12:09;105271.03;;;12.14;nan
7309;BME280;3695;53.330;9.876;2023-07-31T07:14:36;105317.19;;;12.27;nan
7309;BME280;3695;53.330;9.876;2023-07-31T07:17:02;105365.25;;;12.39;nan
7309;BME280;3695;53.330;9.876;2023-07-31T07:19:31;105400.88;;;12.36;nan
7309;BME280;3695;53.330;9.876;2023-07-31T07:21:57;105437.66;;;12.53;nan
7309;BME280;3695;53.330;9.876;2023-07-31T07:24:28;105470.34;;;12.53;nan
7309;BME280;3695;53.330;9.876;2023-07-31T07:26:54;105458.09;;;12.58;nan
7309;BME280;3695;53.330;9.876;2023-07-31T07:29:20;105470.50;;;12.63;nan
7309;BME280;3695;53.330;9.876;2023-07-31T07:31:47;105502.69;;;12.69;nan
7309;BME280;3695;53.330;9.876;2023-07-31T07:34:13;105063.84;;;12.64;nan
7309;BME280;3695;53.330;9.876;2023-07-31T07:36:40;103335.28;;;12.83;nan
7309;BME280;3695;53.330;9.876;2023-07-31T07:39:06;103145.47;;;12.69;nan
7309;BME280;3695;53.330;9.876;2023-07-31T07:41:34;102963.69;;;12.64;nan
7309;BME280;3695;53.330;9.876;2023-07-31T07:44:00;103538.31;;;12.59;nan
7309;BME280;3695;53.330;9.876;2023-07-31T07:46:27;103890.97;;;12.88;nan
7309;BME280;3695;53.330;9.876;2023-07-31T07:48:53;104024.75;;;12.93;nan
7309;BME280;3695;53.330;9.876;2023-07-31T07:51:19;103482.97;;;13.01;nan
7309;BME280;3695;53.330;9.876;2023-07-31T07:53:46;103057.81;;;12.89;nan
7309;BME280;3695;53.330;9.876;2023-07-31T07:56:12;103408.09;;;12.97;nan
7309;BME280;3695;53.330;9.876;2023-07-31T07:58:40;103921.91;;;12.87;nan
7309;BME280;3695;53.330;9.876;2023-07-31T08:01:07;105106.81;;;13.03;nan
7309;BME280;3695;53.330;9.876;2023-07-31T08:03:33;104696.25;;;12.75;nan
7309;BME280;3695;53.330;9.876;2023-07-31T08:06:00;105168.78;;;12.68;nan
7309;BME280;3695;53.330;9.876;2023-07-31T08:08:27;105729.13;;;12.75;nan
7309;BME280;3695;53.330;9.876;2023-07-31T08:10:54;105759.91;;;13.01;nan
7309;BME280;3695;53.330;9.876;2023-07-31T08:13:20;105504.00;;;13.22;nan
7309;BME280;3695;53.330;9.876;2023-07-31T08:15:48;105319.28;;;13.14;nan
7309;BME280;3695;53.330;9.876;2023-07-31T08:18:14;103736.22;;;13.09;nan
7309;BME280;3695;53.330;9.876;2023-07-31T08:20:42;103726.47;;;12.99;nan
7309;BME280;3695;53.330;9.876;2023-07-31T08:23:09;103842.13;;;12.86;nan
7309;BME280;3695;53.330;9.876;2023-07-31T08:25:35;104297.66;;;12.68;nan
7309;BME280;3695;53.330;9.876;2023-07-31T08:28:02;105869.56;;;12.92;nan
7309;BME280;3695;53.330;9.876;2023-07-31T08:30:29;105863.75;;;13.09;nan
7309;BME280;3695;53.330;9.876;2023-07-31T08:32:57;105868.00;;;13.13;nan
7309;BME280;3695;53.330;9.876;2023-07-31T08:35:23;105727.25;;;12.76;nan
7309;BME280;3695;53.330;9.876;2023-07-31T08:37:50;105834.22;;;13.03;nan
7309;BME280;3695;53.330;9.876;2023-07-31T08:40:16;105799.44;;;13.07;nan
7309;BME280;3695;53.330;9.876;2023-07-31T08:42:44;105801.53;;;13.03;nan
7309;BME280;3695;53.330;9.876;2023-07-31T08:45:13;105743.41;;;12.79;nan
7309;BME280;3695;53.330;9.876;2023-07-31T08:47:40;105741.97;;;12.86;nan
7309;BME280;3695;53.330;9.876;2023-07-31T08:50:09;105723.88;;;12.85;nan
7309;BME280;3695;53.330;9.876;2023-07-31T08:52:36;105733.53;;;13.02;nan
7309;BME280;3695;53.330;9.876;2023-07-31T08:55:03;105697.53;;;13.09;nan
7309;BME280;3695;53.330;9.876;2023-07-31T08:57:30;105694.50;;;13.01;nan
7309;BME280;3695;53.330;9.876;2023-07-31T08:59:56;105694.41;;;13.03;nan
7309;BME280;3695;53.330;9.876;2023-07-31T09:02:26;105776.03;;;13.04;nan
7309;BME280;3695;53.330;9.876;2023-07-31T09:04:57;105724.22;;;12.80;nan
7309;BME280;3695;53.330;9.876;2023-07-31T09:07:24;105590.47;;;12.72;nan
7309;BME280;3695;53.330;9.876;2023-07-31T09:09:51;105421.25;;;12.66;nan
7309;BME280;3695;53.330;9.876;2023-07-31T09:12:18;105288.09;;;12.63;nan
7309;BME280;3695;53.330;9.876;2023-07-31T09:14:46;105208.13;;;12.75;nan
7309;BME280;3695;53.330;9.876;2023-07-31T09:17:13;105241.81;;;12.85;nan
7309;BME280;3695;53.330;9.876;2023-07-31T09:19:40;105206.53;;;12.95;nan
7309;BME280;3695;53.330;9.876;2023-07-31T09:22:07;105150.47;;;12.70;nan
7309;BME280;3695;53.330;9.876;2023-07-31T09:24:35;105127.22;;;12.66;nan
7309;BME280;3695;53.330;9.876;2023-07-31T09:27:01;105124.59;;;12.75;nan
7309;BME280;3695;53.330;9.876;2023-07-31T09:29:28;105128.31;;;12.74;nan
7309;BME280;3695;53.330;9.876;2023-07-31T09:31:55;105125.63;;;12.52;nan
7309;BME280;3695;53.330;9.876;2023-07-31T09:34:29;105135.13;;;12.57;nan
7309;BME280;3695;53.330;9.876;2023-07-31T09:36:58;105117.28;;;12.76;nan
7309;BME280;3695;53.330;9.876;2023-07-31T09:39:27;105121.88;;;12.86;nan
7309;BME280;3695;53.330;9.876;2023-07-31T09:41:55;105171.53;;;12.79;nan
7309;BME280;3695;53.330;9.876;2023-07-31T09:44:21;105228.69;;;12.90;nan
7309;BME280;3695;53.330;9.876;2023-07-31T09:47:03;105229.03;;;12.74;nan
7309;BME280;3695;53.330;9.876;2023-07-31T09:49:29;105258.03;;;12.86;nan
7309;BME280;3695;53.330;9.876;2023-07-31T09:51:56;105272.03;;;12.93;nan
7309;BME280;3695;53.330;9.876;2023-07-31T09:54:22;105332.56;;;13.08;nan
7309;BME280;3695;53.330;9.876;2023-07-31T09:56:49;105362.16;;;13.12;nan
7309;BME280;3695;53.330;9.876;2023-07-31T09:59:18;105389.03;;;13.06;nan
7309;BME280;3695;53.330;9.876;2023-07-31T10:01:46;105357.69;;;12.89;nan
7309;BME280;3695;53.330;9.876;2023-07-31T10:04:17;105362.34;;;12.76;nan
7309;BME280;3695;53.330;9.876;2023-07-31T10:06:46;105372.25;;;12.77;nan
7309;BME280;3695;53.330;9.876;2023-07-31T10:09:18;105430.25;;;12.90;nan
7309;BME280;3695;53.330;9.876;2023-07-31T10:11:47;105451.41;;;12.86;nan
7309;BME280;3695;53.330;9.876;2023-07-31T10:14:18;105517.16;;;12.93;nan
7309;BME280;3695;53.330;9.876;2023-07-31T10:16:46;105616.31;;;13.14;nan
7309;BME280;3695;53.330;9.876;2023-07-31T10:19:13;105646.75;;;13.08;nan
7309;BME280;3695;53.330;9.876;2023-07-31T10:21:41;105723.47;;;13.28;nan
7309;BME280;3695;53.330;9.876;2023-07-31T10:24:08;105754.38;;;13.39;nan
7309;BME280;3695;53.330;9.876;2023-07-31T10:26:37;105789.09;;;13.25;nan
7309;BME280;3695;53.330;9.876;2023-07-31T10:29:05;105790.19;;;13.09;nan
7309;BME280;3695;53.330;9.876;2023-07-31T10:31:34;105824.63;;;13.23;nan
7309;BME280;3695;53.330;9.876;2023-07-31T10:34:01;105817.22;;;13.25;nan
7309;BME280;3695;53.330;9.876;2023-07-31T10:36:29;105784.72;;;13.22;nan
7309;BME280;3695;53.330;9.876;2023-07-31T10:38:56;105857.78;;;13.30;nan
7309;BME280;3695;53.330;9.876;2023-07-31T10:41:28;105877.38;;;13.35;nan
7309;BME280;3695;53.330;9.876;2023-07-31T10:43:57;105856.69;;;13.19;nan
7309;BME280;3695;53.330;9.876;2023-07-31T10:46:24;105864.63;;;13.35;nan
7309;BME280;3695;53.330;9.876;2023-07-31T10:48:57;105937.06;;;13.63;nan
7309;BME280;3695;53.330;9.876;2023-07-31T10:51:32;105884.88;;;13.44;nan
7309;BME280;3695;53.330;9.876;2023-07-31T10:54:10;105900.47;;;13.16;nan
7309;BME280;3695;53.330;9.876;2023-07-31T10:56:37;105878.47;;;13.32;nan
7309;BME280;3695;53.330;9.876;2023-07-31T10:59:04;105797.13;;;13.39;nan
7309;BME280;3695;53.330;9.876;2023-07-31T11:01:52;105825.72;;;13.57;nan
7309;BME280;3695;53.330;9.876;2023-07-31T11:04:24;105732.94;;;13.46;nan
7309;BME280;3695;53.330;9.876;2023-07-31T11:06:57;105722.84;;;13.59;nan
7309;BME280;3695;53.330;9.876;2023-07-31T11:09:27;105746.56;;;13.70;nan
7309;BME280;3695;53.330;9.876;2023-07-31T11:11:54;105737.53;;;13.45;nan
7309;BME280;3695;53.330;9.876;2023-07-31T11:14:21;105793.28;;;13.65;nan
7309;BME280;3695;53.330;9.876;2023-07-31T11:16:50;105783.59;;;13.61;nan
7309;BME280;3695;53.330;9.876;2023-07-31T11:19:22;105704.25;;;13.29;nan
7309;BME280;3695;53.330;9.876;2023-07-31T11:21:50;105668.75;;;13.42;nan
7309;BME280;3695;53.330;9.876;2023-07-31T11:24:17;105616.25;;;13.62;nan
7309;BME280;3695;53.330;9.876;2023-07-31T11:26:49;105608.06;;;13.62;nan
7309;BME280;3695;53.330;9.876;2023-07-31T11:29:15;105587.47;;;13.58;nan
7309;BME280;3695;53.330;9.876;2023-07-31T11:31:42;105563.69;;;13.71;nan
7309;BME280;3695;53.330;9.876;2023-07-31T11:34:09;105531.75;;;13.73;nan
7309;BME280;3695;53.330;9.876;2023-07-31T11:36:36;105511.63;;;13.52;nan
7309;BME280;3695;53.330;9.876;2023-07-31T11:39:07;105501.84;;;13.61;nan
7309;BME280;3695;53.330;9.876;2023-07-31T11:41:34;105461.06;;;13.59;nan
7309;BME280;3695;53.330;9.876;2023-07-31T11:44:01;105530.47;;;13.55;nan
7309;BME280;3695;53.330;9.876;2023-07-31T11:46:28;105603.84;;;13.69;nan
7309;BME280;3695;53.330;9.876;2023-07-31T11:48:59;105612.78;;;13.71;nan
7309;BME280;3695;53.330;9.876;2023-07-31T11:51:26;105568.53;;;13.68;nan
7309;BME280;3695;53.330;9.876;2023-07-31T11:53:57;105556.97;;;13.42;nan
7309;BME280;3695;53.330;9.876;2023-07-31T11:56:26;105473.69;;;13.38;nan
7309;BME280;3695;53.330;9.876;2023-07-31T11:58:55;105507.19;;;13.84;nan
7309;BME280;3695;53.330;9.876;2023-07-31T12:01:23;105557.28;;;13.83;nan
7309;BME280;3695;53.330;9.876;2023-07-31T12:03:50;105583.78;;;13.70;nan
7309;BME280;3695;53.330;9.876;2023-07-31T12:06:18;105566.22;;;13.74;nan
7309;BME280;3695;53.330;9.876;2023-07-31T12:08:46;105504.34;;;13.75;nan
7309;BME280;3695;53.330;9.876;2023-07-31T12:11:14;105475.66;;;13.92;nan
7309;BME280;3695;53.330;9.876;2023-07-31T12:13:41;105452.63;;;13.73;nan
7309;BME280;3695;53.330;9.876;2023-07-31T12:16:07;105441.72;;;13.73;nan
7309;BME280;3695;53.330;9.876;2023-07-31T12:18:36;105440.00;;;13.72;nan
7309;BME280;3695;53.330;9.876;2023-07-31T12:21:05;105382.81;;;13.71;nan
7309;BME280;3695;53.330;9.876;2023-07-31T12:23:33;105408.13;;;13.73;nan
7309;BME280;3695;53.330;9.876;2023-07-31T12:26:00;105438.97;;;13.96;nan
7309;BME280;3695;53.330;9.876;2023-07-31T12:28:28;105474.41;;;13.96;nan
7309;BME280;3695;53.330;9.876;2023-07-31T12:30:57;105490.91;;;13.94;nan
7309;BME280;3695;53.330;9.876;2023-07-31T12:33:24;105464.78;;;13.80;nan
7309;BME280;3695;53.330;9.876;2023-07-31T12:35:51;105427.56;;;13.68;nan
7309;BME280;3695;53.330;9.876;2023-07-31T12:38:18;105472.22;;;13.67;nan
7309;BME280;3695;53.330;9.876;2023-07-31T12:40:44;105504.47;;;13.73;nan
7309;BME280;3695;53.330;9.876;2023-07-31T12:43:10;105424.84;;;13.68;nan
7309;BME280;3695;53.330;9.876;2023-07-31T12:45:38;105463.56;;;13.73;nan
7309;BME280;3695;53.330;9.876;2023-07-31T12:48:05;105501.72;;;13.84;nan
7309;BME280;3695;53.330;9.876;2023-07-31T12:50:31;105529.59;;;13.99;nan
7309;BME280;3695;53.330;9.876;2023-07-31T12:52:58;105607.38;;;13.94;nan
7309;BME280;3695;53.330;9.876;2023-07-31T12:55:24;105621.00;;;13.82;nan
7309;BME280;3695;53.330;9.876;2023-07-31T12:57:51;105674.59;;;14.06;nan
7309;BME280;3695;53.330;9.876;2023-07-31T13:00:17;105753.66;;;14.18;nan
7309;BME280;3695;53.330;9.876;2023-07-31T13:02:45;105872.88;;;14.18;nan
7309;BME280;3695;53.330;9.876;2023-07-31T13:05:11;105841.31;;;14.03;nan
7309;BME280;3695;53.330;9.876;2023-07-31T13:07:38;105923.94;;;14.05;nan
7309;BME280;3695;53.330;9.876;2023-07-31T13:10:06;105890.50;;;13.90;nan
7309;BME280;3695;53.330;9.876;2023-07-31T13:12:33;105891.84;;;13.84;nan
7309;BME280;3695;53.330;9.876;2023-07-31T13:15:00;105915.88;;;13.79;nan
7309;BME280;3695;53.330;9.876;2023-07-31T13:17:26;105934.31;;;13.76;nan
7309;BME280;3695;53.330;9.876;2023-07-31T13:19:54;106197.19;;;13.88;nan
7309;BME280;3695;53.330;9.876;2023-07-31T13:22:20;106279.69;;;13.78;nan
7309;BME280;3695;53.330;9.876;2023-07-31T13:24:47;106438.41;;;13.85;nan
7309;BME280;3695;53.330;9.876;2023-07-31T13:27:13;106543.38;;;13.79;nan
7309;BME280;3695;53.330;9.876;2023-07-31T13:29:42;106711.47;;;13.96;nan
7309;BME280;3695;53.330;9.876;2023-07-31T13:32:08;106885.50;;;14.07;nan